sensor_id;sensor_type;location;lat;lon;timestamp;P1;durP1;ratioP1;P2;durP2;ratioP2
18399;SDS011;9326;49.468;11.008;2024-01-27T00:00:39;6.17;;;1.80;;
18399;SDS011;9326;49.468;11.008;2024-01-27T00:03:06;5.20;;;1.83;;
18399;SDS011;9326;49.468;11.008;2024-01-27T00:05:34;6.83;;;1.93;;
18399;SDS011;9326;49.468;11.008;2024-01-27T00:08:02;4.10;;;1.47;;
18399;SDS011;9326;49.468;11.008;2024-01-27T00:10:29;7.27;;;1.73;;
18399;SDS011;9326;49.468;11.008;2024-01-27T00:12:56;8.77;;;2.20;;
18399;SDS011;9326;49.468;11.008;2024-01-27T00:15:23;5.63;;;1.93;;
18399;SDS011;9326;49.468;11.008;2024-01-27T00:17:50;4.50;;;1.70;;
18399;SDS011;9326;49.468;11.008;2024-01-27T00:20:17;3.47;;;1.60;;
18399;SDS011;9326;49.468;11.008;2024-01-27T00:22:46;3.83;;;1.63;;
18399;SDS011;9326;49.468;11.008;2024-01-27T00:25:13;3.57;;;1.43;;
18399;SDS011;9326;49.468;11.008;2024-01-27T00:27:40;9.67;;;2.20;;
18399;SDS011;9326;49.468;11.008;2024-01-27T00:30:07;5.33;;;1.87;;
18399;SDS011;9326;49.468;11.008;2024-01-27T00:32:36;5.43;;;1.60;;
18399;SDS011;9326;49.468;11.008;2024-01-27T00:35:03;5.17;;;2.10;;
18399;SDS011;9326;49.468;11.008;2024-01-27T00:37:31;7.53;;;1.90;;
18399;SDS011;9326;49.468;11.008;2024-01-27T00:39:59;4.67;;;1.57;;
18399;SDS011;9326;49.468;11.008;2024-01-27T00:42:26;4.07;;;1.77;;
18399;SDS011;9326;49.468;11.008;2024-01-27T00:44:53;4.50;;;1.90;;
18399;SDS011;9326;49.468;11.008;2024-01-27T00:47:20;6.03;;;2.37;;
18399;SDS011;9326;49.468;11.008;2024-01-27T00:49:48;6.23;;;2.10;;
18399;SDS011;9326;49.468;11.008;2024-01-27T00:52:15;5.97;;;1.93;;
18399;SDS011;9326;49.468;11.008;2024-01-27T00:54:42;5.70;;;1.80;;
18399;SDS011;9326;49.468;11.008;2024-01-27T00:57:10;5.37;;;2.10;;
18399;SDS011;9326;49.468;11.008;2024-01-27T00:59:37;6.90;;;2.43;;
18399;SDS011;9326;49.468;11.008;2024-01-27T06:01:57;11.20;;;4.47;;
18399;SDS011;9326;49.468;11.008;2024-01-27T06:04:24;10.77;;;4.20;;
18399;SDS011;9326;49.468;11.008;2024-01-27T06:06:51;10.90;;;4.30;;
18399;SDS011;9326;49.468;11.008;2024-01-27T06:09:18;10.27;;;4.60;;
18399;SDS011;9326;49.468;11.008;2024-01-27T06:11:46;9.50;;;4.33;;
18399;SDS011;9326;49.468;11.008;2024-01-27T06:14:13;10.73;;;4.30;;
18399;SDS011;9326;49.468;11.008;2024-01-27T06:16:41;7.00;;;4.40;;
18399;SDS011;9326;49.468;11.008;2024-01-27T06:19:09;14.20;;;5.40;;
18399;SDS011;9326;49.468;11.008;2024-01-27T06:21:36;13.63;;;5.70;;
18399;SDS011;9326;49.468;11.008;2024-01-27T06:24:04;12.07;;;5.27;;
18399;SDS011;9326;49.468;11.008;2024-01-27T06:26:31;13.37;;;5.73;;
18399;SDS011;9326;49.468;11.008;2024-01-27T06:28:58;14.70;;;5.10;;
18399;SDS011;9326;49.468;11.008;2024-01-27T06:31:29;10.73;;;5.07;;
18399;SDS011;9326;49.468;11.008;2024-01-27T06:33:56;12.47;;;4.70;;
18399;SDS011;9326;49.468;11.008;2024-01-27T06:36:24;10.57;;;4.80;;
18399;SDS011;9326;49.468;11.008;2024-01-27T06:38:52;10.23;;;4.73;;
18399;SDS011;9326;49.468;11.008;2024-01-27T06:41:19;13.00;;;5.10;;
18399;SDS011;9326;49.468;11.008;2024-01-27T06:43:47;7.93;;;4.73;;
18399;SDS011;9326;49.468;11.008;2024-01-27T06:46:14;10.70;;;4.57;;
18399;SDS011;9326;49.468;11.008;2024-01-27T06:48:41;10.80;;;4.63;;
18399;SDS011;9326;49.468;11.008;2024-01-27T06:51:08;10.07;;;4.50;;
18399;SDS011;9326;49.468;11.008;2024-01-27T06:53:37;9.60;;;4.53;;
18399;SDS011;9326;49.468;11.008;2024-01-27T06:56:04;9.07;;;4.73;;
18399;SDS011;9326;49.468;11.008;2024-01-27T06:58:31;9.80;;;4.30;;
18399;SDS011;9326;49.468;11.008;2024-01-27T07:00:59;10.07;;;4.40;;
18399;SDS011;9326;49.468;11.008;2024-01-27T07:03:26;10.97;;;4.60;;
18399;SDS011;9326;49.468;11.008;2024-01-27T07:05:54;10.97;;;4.87;;
18399;SDS011;9326;49.468;11.008;2024-01-27T07:08:21;7.77;;;4.83;;
18399;SDS011;9326;49.468;11.008;2024-01-27T07:10:50;14.30;;;4.73;;
18399;SDS011;9326;49.468;11.008;2024-01-27T07:13:17;13.00;;;5.00;;
18399;SDS011;9326;49.468;11.008;2024-01-27T07:15:44;12.23;;;4.50;;
18399;SDS011;9326;49.468;11.008;2024-01-27T07:18:12;11.17;;;4.50;;
18399;SDS011;9326;49.468;11.008;2024-01-27T07:20:40;11.73;;;4.50;;
18399;SDS011;9326;49.468;11.008;2024-01-27T07:23:07;12.17;;;5.03;;
18399;SDS011;9326;49.468;11.008;2024-01-27T07:25:34;13.00;;;5.13;;
18399;SDS011;9326;49.468;11.008;2024-01-27T07:28:03;9.97;;;4.67;;
18399;SDS011;9326;49.468;11.008;2024-01-27T07:30:30;10.67;;;5.10;;
18399;SDS011;9326;49.468;11.008;2024-01-27T07:32:57;11.87;;;4.73;;
18399;SDS011;9326;49.468;11.008;2024-01-27T07:35:25;14.90;;;5.00;;
18399;SDS011;9326;49.468;11.008;2024-01-27T07:37:52;12.97;;;5.00;;
18399;SDS011;9326;49.468;11.008;2024-01-27T07:40:19;11.13;;;4.60;;
18399;SDS011;9326;49.468;11.008;2024-01-27T07:42:47;11.93;;;4.87;;
18399;SDS011;9326;49.468;11.008;2024-01-27T07:45:16;12.70;;;4.80;;
18399;SDS011;9326;49.468;11.008;2024-01-27T07:47:43;14.17;;;5.30;;
18399;SDS011;9326;49.468;11.008;2024-01-27T07:50:10;13.50;;;4.90;;
18399;SDS011;9326;49.468;11.008;2024-01-27T07:52:37;11.13;;;4.97;;
18399;SDS011;9326;49.468;11.008;2024-01-27T07:55:04;16.90;;;5.33;;
18399;SDS011;9326;49.468;11.008;2024-01-27T07:57:32;21.40;;;6.70;;
18399;SDS011;9326;49.468;11.008;2024-01-27T08:00:00;13.63;;;5.37;;
18399;SDS011;9326;49.468;11.008;2024-01-27T08:02:28;13.67;;;4.90;;
18399;SDS011;9326;49.468;11.008;2024-01-27T08:04:55;12.60;;;4.93;;
18399;SDS011;9326;49.468;11.008;2024-01-27T08:07:23;15.83;;;4.57;;
18399;SDS011;9326;49.468;11.008;2024-01-27T08:09:50;13.33;;;5.10;;
18399;SDS011;9326;49.468;11.008;2024-01-27T08:12:17;12.50;;;4.73;;
18399;SDS011;9326;49.468;11.008;2024-01-27T08:14:44;7.97;;;4.73;;
18399;SDS011;9326;49.468;11.008;2024-01-27T08:17:11;12.97;;;4.17;;
18399;SDS011;9326;49.468;11.008;2024-01-27T08:19:40;16.70;;;4.93;;
18399;SDS011;9326;49.468;11.008;2024-01-27T08:22:07;12.20;;;4.80;;
18399;SDS011;9326;49.468;11.008;2024-01-27T08:24:34;10.90;;;4.60;;
18399;SDS011;9326;49.468;11.008;2024-01-27T08:27:01;9.93;;;4.73;;
18399;SDS011;9326;49.468;11.008;2024-01-27T08:29:30;12.27;;;4.70;;
18399;SDS011;9326;49.468;11.008;2024-01-27T08:31:58;11.17;;;4.87;;
18399;SDS011;9326;49.468;11.008;2024-01-27T08:34:25;15.20;;;5.00;;
18399;SDS011;9326;49.468;11.008;2024-01-27T08:36:59;11.37;;;4.80;;
18399;SDS011;9326;49.468;11.008;2024-01-27T08:39:26;10.40;;;5.10;;
18399;SDS011;9326;49.468;11.008;2024-01-27T08:41:54;10.80;;;4.87;;
18399;SDS011;9326;49.468;11.008;2024-01-27T08:44:21;16.17;;;4.57;;
18399;SDS011;9326;49.468;11.008;2024-01-27T08:46:48;12.47;;;4.40;;
18399;SDS011;9326;49.468;11.008;2024-01-27T08:49:16;14.23;;;5.33;;
18399;SDS011;9326;49.468;11.008;2024-01-27T08:51:43;9.60;;;4.93;;
18399;SDS011;9326;49.468;11.008;2024-01-27T08:54:12;10.10;;;4.90;;
18399;SDS011;9326;49.468;11.008;2024-01-27T08:56:39;24.63;;;5.63;;
18399;SDS011;9326;49.468;11.008;2024-01-27T08:59:07;10.40;;;4.93;;
18399;SDS011;9326;49.468;11.008;2024-01-27T09:01:34;12.90;;;4.47;;
18399;SDS011;9326;49.468;11.008;2024-01-27T09:04:01;10.13;;;4.63;;
18399;SDS011;9326;49.468;11.008;2024-01-27T09:06:28;12.03;;;4.17;;
18399;SDS011;9326;49.468;11.008;2024-01-27T09:08:55;12.80;;;4.03;;
18399;SDS011;9326;49.468;11.008;2024-01-27T09:11:24;11.17;;;4.10;;
18399;SDS011;9326;49.468;11.008;2024-01-27T09:13:54;12.63;;;5.03;;
18399;SDS011;9326;49.468;11.008;2024-01-27T09:16:22;14.80;;;4.53;;
18399;SDS011;9326;49.468;11.008;2024-01-27T09:18:49;10.87;;;4.00;;
18399;SDS011;9326;49.468;11.008;2024-01-27T09:21:17;10.33;;;3.83;;
18399;SDS011;9326;49.468;11.008;2024-01-27T09:23:45;10.70;;;3.50;;
18399;SDS011;9326;49.468;11.008;2024-01-27T09:26:13;13.43;;;4.57;;
18399;SDS011;9326;49.468;11.008;2024-01-27T09:28:44;13.17;;;3.80;;
18399;SDS011;9326;49.468;11.008;2024-01-27T09:31:19;9.97;;;3.57;;
18399;SDS011;9326;49.468;11.008;2024-01-27T09:33:47;12.27;;;3.80;;
18399;SDS011;9326;49.468;11.008;2024-01-27T09:36:14;10.27;;;3.40;;
18399;SDS011;9326;49.468;11.008;2024-01-27T09:38:43;11.30;;;3.20;;
18399;SDS011;9326;49.468;11.008;2024-01-27T09:41:11;15.73;;;4.33;;
18399;SDS011;9326;49.468;11.008;2024-01-27T09:43:39;11.47;;;4.13;;
18399;SDS011;9326;49.468;11.008;2024-01-27T09:46:08;5.93;;;3.10;;
18399;SDS011;9326;49.468;11.008;2024-01-27T09:48:36;10.67;;;3.73;;
18399;SDS011;9326;49.468;11.008;2024-01-27T09:51:03;9.60;;;4.07;;
18399;SDS011;9326;49.468;11.008;2024-01-27T09:53:31;8.53;;;3.43;;
18399;SDS011;9326;49.468;11.008;2024-01-27T09:55:59;7.40;;;3.67;;
18399;SDS011;9326;49.468;11.008;2024-01-27T09:58:27;9.63;;;4.03;;
18399;SDS011;9326;49.468;11.008;2024-01-27T10:00:56;11.23;;;4.27;;
18399;SDS011;9326;49.468;11.008;2024-01-27T10:03:24;11.43;;;3.53;;
18399;SDS011;9326;49.468;11.008;2024-01-27T10:05:52;10.37;;;3.70;;
18399;SDS011;9326;49.468;11.008;2024-01-27T10:08:20;14.17;;;4.00;;
18399;SDS011;9326;49.468;11.008;2024-01-27T10:10:47;9.70;;;3.50;;
18399;SDS011;9326;49.468;11.008;2024-01-27T10:13:16;10.87;;;3.07;;
18399;SDS011;9326;49.468;11.008;2024-01-27T10:15:43;7.63;;;3.20;;
18399;SDS011;9326;49.468;11.008;2024-01-27T10:18:10;9.40;;;3.10;;
18399;SDS011;9326;49.468;11.008;2024-01-27T10:20:41;11.53;;;3.20;;
18399;SDS011;9326;49.468;11.008;2024-01-27T10:23:10;9.67;;;3.33;;
18399;SDS011;9326;49.468;11.008;2024-01-27T10:25:37;12.37;;;3.23;;
18399;SDS011;9326;49.468;11.008;2024-01-27T10:28:05;8.93;;;2.70;;
18399;SDS011;9326;49.468;11.008;2024-01-27T10:30:35;11.80;;;3.30;;
18399;SDS011;9326;49.468;11.008;2024-01-27T10:33:02;8.97;;;3.10;;
18399;SDS011;9326;49.468;11.008;2024-01-27T10:35:29;7.07;;;2.53;;
18399;SDS011;9326;49.468;11.008;2024-01-27T10:37:58;9.93;;;3.10;;
18399;SDS011;9326;49.468;11.008;2024-01-27T10:40:25;13.50;;;3.37;;
18399;SDS011;9326;49.468;11.008;2024-01-27T10:43:01;11.20;;;3.20;;
18399;SDS011;9326;49.468;11.008;2024-01-27T10:45:29;11.73;;;3.30;;
18399;SDS011;9326;49.468;11.008;2024-01-27T10:48:01;10.97;;;3.13;;
18399;SDS011;9326;49.468;11.008;2024-01-27T10:50:29;14.03;;;3.83;;
18399;SDS011;9326;49.468;11.008;2024-01-27T10:52:58;6.93;;;3.47;;
18399;SDS011;9326;49.468;11.008;2024-01-27T10:55:26;10.30;;;2.87;;
18399;SDS011;9326;49.468;11.008;2024-01-27T10:57:56;8.30;;;2.70;;
18399;SDS011;9326;49.468;11.008;2024-01-27T11:00:27;12.43;;;2.90;;
18399;SDS011;9326;49.468;11.008;2024-01-27T11:02:56;11.30;;;2.90;;
18399;SDS011;9326;49.468;11.008;2024-01-27T11:05:24;9.87;;;2.90;;
18399;SDS011;9326;49.468;11.008;2024-01-27T11:07:51;10.43;;;3.00;;
18399;SDS011;9326;49.468;11.008;2024-01-27T11:10:21;10.20;;;2.97;;
18399;SDS011;9326;49.468;11.008;2024-01-27T11:12:48;9.90;;;2.83;;
18399;SDS011;9326;49.468;11.008;2024-01-27T11:15:15;9.13;;;3.33;;
18399;SDS011;9326;49.468;11.008;2024-01-27T11:17:43;8.23;;;2.80;;
18399;SDS011;9326;49.468;11.008;2024-01-27T11:20:11;11.73;;;3.43;;
18399;SDS011;9326;49.468;11.008;2024-01-27T11:22:41;9.53;;;3.33;;
18399;SDS011;9326;49.468;11.008;2024-01-27T11:25:14;14.00;;;3.93;;
18399;SDS011;9326;49.468;11.008;2024-01-27T11:27:43;6.80;;;2.40;;
18399;SDS011;9326;49.468;11.008;2024-01-27T11:30:24;9.43;;;2.87;;
18399;SDS011;9326;49.468;11.008;2024-01-27T11:32:52;10.50;;;2.87;;
18399;SDS011;9326;49.468;11.008;2024-01-27T11:35:19;9.97;;;2.20;;
18399;SDS011;9326;49.468;11.008;2024-01-27T11:37:47;11.77;;;2.53;;
18399;SDS011;9326;49.468;11.008;2024-01-27T11:40:14;12.23;;;2.73;;
18399;SDS011;9326;49.468;11.008;2024-01-27T11:42:43;16.53;;;4.40;;
18399;SDS011;9326;49.468;11.008;2024-01-27T11:45:10;12.73;;;3.87;;
18399;SDS011;9326;49.468;11.008;2024-01-27T11:47:37;14.73;;;3.83;;
18399;SDS011;9326;49.468;11.008;2024-01-27T11:50:05;10.93;;;2.60;;
18399;SDS011;9326;49.468;11.008;2024-01-27T11:52:33;8.13;;;2.07;;
18399;SDS011;9326;49.468;11.008;2024-01-27T11:54:59;10.77;;;3.07;;
18399;SDS011;9326;49.468;11.008;2024-01-27T11:57:27;9.63;;;2.60;;
18399;SDS011;9326;49.468;11.008;2024-01-27T11:59:56;8.83;;;2.20;;
18399;SDS011;9326;49.468;11.008;2024-01-27T12:02:23;14.03;;;2.87;;
18399;SDS011;9326;49.468;11.008;2024-01-27T12:04:50;8.00;;;2.50;;
18399;SDS011;9326;49.468;11.008;2024-01-27T12:07:18;9.10;;;2.80;;
18399;SDS011;9326;49.468;11.008;2024-01-27T12:09:48;11.30;;;2.43;;
18399;SDS011;9326;49.468;11.008;2024-01-27T12:12:15;12.30;;;2.87;;
18399;SDS011;9326;49.468;11.008;2024-01-27T12:14:44;10.40;;;2.70;;
18399;SDS011;9326;49.468;11.008;2024-01-27T12:17:13;8.70;;;2.30;;
18399;SDS011;9326;49.468;11.008;2024-01-27T12:19:45;7.83;;;3.07;;
18399;SDS011;9326;49.468;11.008;2024-01-27T12:22:20;9.93;;;2.33;;
18399;SDS011;9326;49.468;11.008;2024-01-27T12:24:48;9.10;;;2.47;;
18399;SDS011;9326;49.468;11.008;2024-01-27T12:27:15;7.77;;;2.30;;
18399;SDS011;9326;49.468;11.008;2024-01-27T12:29:43;8.00;;;2.10;;
18399;SDS011;9326;49.468;11.008;2024-01-27T12:32:10;6.00;;;1.80;;
18399;SDS011;9326;49.468;11.008;2024-01-27T12:34:42;6.73;;;1.80;;
18399;SDS011;9326;49.468;11.008;2024-01-27T12:37:10;7.43;;;2.20;;
18399;SDS011;9326;49.468;11.008;2024-01-27T12:39:40;7.83;;;1.97;;
18399;SDS011;9326;49.468;11.008;2024-01-27T12:42:07;6.33;;;1.93;;
18399;SDS011;9326;49.468;11.008;2024-01-27T12:44:34;6.13;;;2.33;;
18399;SDS011;9326;49.468;11.008;2024-01-27T12:47:02;9.70;;;2.10;;
18399;SDS011;9326;49.468;11.008;2024-01-27T12:49:29;11.40;;;2.07;;
18399;SDS011;9326;49.468;11.008;2024-01-27T12:51:57;6.37;;;1.70;;
18399;SDS011;9326;49.468;11.008;2024-01-27T12:54:25;8.03;;;2.30;;
18399;SDS011;9326;49.468;11.008;2024-01-27T12:56:51;7.97;;;2.00;;
18399;SDS011;9326;49.468;11.008;2024-01-27T12:59:18;8.87;;;2.30;;
18399;SDS011;9326;49.468;11.008;2024-01-27T13:01:45;9.27;;;2.33;;
18399;SDS011;9326;49.468;11.008;2024-01-27T13:04:13;6.40;;;1.50;;
18399;SDS011;9326;49.468;11.008;2024-01-27T13:06:40;7.07;;;2.00;;
18399;SDS011;9326;49.468;11.008;2024-01-27T13:09:08;11.73;;;1.97;;
18399;SDS011;9326;49.468;11.008;2024-01-27T13:11:37;11.50;;;2.37;;
18399;SDS011;9326;49.468;11.008;2024-01-27T13:14:04;4.13;;;1.50;;
18399;SDS011;9326;49.468;11.008;2024-01-27T13:16:34;8.20;;;1.67;;
18399;SDS011;9326;49.468;11.008;2024-01-27T13:19:01;6.60;;;1.60;;
18399;SDS011;9326;49.468;11.008;2024-01-27T13:21:29;8.33;;;2.30;;
18399;SDS011;9326;49.468;11.008;2024-01-27T13:23:56;5.40;;;1.47;;
18399;SDS011;9326;49.468;11.008;2024-01-27T13:26:24;6.33;;;1.87;;
18399;SDS011;9326;49.468;11.008;2024-01-27T13:28:51;6.90;;;1.80;;
18399;SDS011;9326;49.468;11.008;2024-01-27T13:31:19;10.50;;;1.80;;
18399;SDS011;9326;49.468;11.008;2024-01-27T13:33:46;6.17;;;1.57;;
18399;SDS011;9326;49.468;11.008;2024-01-27T13:36:13;9.60;;;2.27;;
18399;SDS011;9326;49.468;11.008;2024-01-27T13:38:41;5.10;;;1.57;;
18399;SDS011;9326;49.468;11.008;2024-01-27T13:41:08;5.67;;;1.83;;
18399;SDS011;9326;49.468;11.008;2024-01-27T13:43:36;8.53;;;1.67;;
18399;SDS011;9326;49.468;11.008;2024-01-27T13:46:04;7.80;;;2.20;;
18399;SDS011;9326;49.468;11.008;2024-01-27T13:48:31;6.47;;;1.87;;
18399;SDS011;9326;49.468;11.008;2024-01-27T13:50:59;9.00;;;2.47;;
18399;SDS011;9326;49.468;11.008;2024-01-27T13:53:26;10.93;;;2.37;;
18399;SDS011;9326;49.468;11.008;2024-01-27T13:55:53;5.87;;;1.80;;
18399;SDS011;9326;49.468;11.008;2024-01-27T13:58:20;9.07;;;2.20;;
18399;SDS011;9326;49.468;11.008;2024-01-27T14:00:49;9.03;;;2.10;;
18399;SDS011;9326;49.468;11.008;2024-01-27T14:03:16;7.90;;;2.27;;
18399;SDS011;9326;49.468;11.008;2024-01-27T14:05:43;7.97;;;2.00;;
18399;SDS011;9326;49.468;11.008;2024-01-27T14:08:12;11.33;;;2.00;;
18399;SDS011;9326;49.468;11.008;2024-01-27T14:10:40;6.53;;;1.83;;
18399;SDS011;9326;49.468;11.008;2024-01-27T14:13:08;8.93;;;2.03;;
18399;SDS011;9326;49.468;11.008;2024-01-27T14:15:35;8.50;;;2.23;;
18399;SDS011;9326;49.468;11.008;2024-01-27T14:18:04;10.43;;;2.23;;
18399;SDS011;9326;49.468;11.008;2024-01-27T14:20:31;8.47;;;1.80;;
18399;SDS011;9326;49.468;11.008;2024-01-27T14:23:01;9.37;;;2.23;;
18399;SDS011;9326;49.468;11.008;2024-01-27T14:25:28;5.70;;;1.90;;
18399;SDS011;9326;49.468;11.008;2024-01-27T14:27:55;10.77;;;1.87;;
18399;SDS011;9326;49.468;11.008;2024-01-27T14:30:22;6.53;;;1.70;;
18399;SDS011;9326;49.468;11.008;2024-01-27T14:32:50;9.10;;;2.03;;
18399;SDS011;9326;49.468;11.008;2024-01-27T14:35:18;5.00;;;1.60;;
18399;SDS011;9326;49.468;11.008;2024-01-27T14:37:45;5.77;;;1.73;;
18399;SDS011;9326;49.468;11.008;2024-01-27T14:40:14;5.53;;;1.50;;
18399;SDS011;9326;49.468;11.008;2024-01-27T14:42:41;8.73;;;1.83;;
18399;SDS011;9326;49.468;11.008;2024-01-27T14:45:10;8.47;;;2.10;;
18399;SDS011;9326;49.468;11.008;2024-01-27T14:47:37;6.83;;;1.80;;
18399;SDS011;9326;49.468;11.008;2024-01-27T14:50:05;7.33;;;1.90;;
18399;SDS011;9326;49.468;11.008;2024-01-27T14:52:34;9.67;;;2.23;;
18399;SDS011;9326;49.468;11.008;2024-01-27T14:55:01;7.73;;;2.20;;
18399;SDS011;9326;49.468;11.008;2024-01-27T14:57:29;8.37;;;2.23;;
18399;SDS011;9326;49.468;11.008;2024-01-27T14:59:56;5.77;;;1.53;;
18399;SDS011;9326;49.468;11.008;2024-01-27T15:02:23;8.33;;;1.83;;
18399;SDS011;9326;49.468;11.008;2024-01-27T15:04:50;10.20;;;2.00;;
18399;SDS011;9326;49.468;11.008;2024-01-27T15:07:17;10.83;;;2.23;;
18399;SDS011;9326;49.468;11.008;2024-01-27T15:09:46;9.40;;;1.93;;
18399;SDS011;9326;49.468;11.008;2024-01-27T15:12:13;10.27;;;2.47;;
18399;SDS011;9326;49.468;11.008;2024-01-27T15:14:41;9.63;;;1.90;;
18399;SDS011;9326;49.468;11.008;2024-01-27T15:17:08;11.27;;;1.93;;
18399;SDS011;9326;49.468;11.008;2024-01-27T15:19:36;10.87;;;2.50;;
18399;SDS011;9326;49.468;11.008;2024-01-27T15:22:03;6.83;;;2.10;;
18399;SDS011;9326;49.468;11.008;2024-01-27T15:24:30;8.30;;;2.07;;
18399;SDS011;9326;49.468;11.008;2024-01-27T15:27:01;10.20;;;2.10;;
18399;SDS011;9326;49.468;11.008;2024-01-27T15:29:28;11.40;;;2.27;;
18399;SDS011;9326;49.468;11.008;2024-01-27T15:31:55;7.97;;;1.97;;
18399;SDS011;9326;49.468;11.008;2024-01-27T15:34:23;8.67;;;2.10;;
18399;SDS011;9326;49.468;11.008;2024-01-27T15:36:50;5.93;;;1.80;;
18399;SDS011;9326;49.468;11.008;2024-01-27T15:39:17;6.83;;;1.87;;
18399;SDS011;9326;49.468;11.008;2024-01-27T15:41:44;8.17;;;2.00;;
18399;SDS011;9326;49.468;11.008;2024-01-27T15:44:13;8.00;;;1.47;;
18399;SDS011;9326;49.468;11.008;2024-01-27T15:46:40;9.37;;;1.70;;
18399;SDS011;9326;49.468;11.008;2024-01-27T15:49:07;8.40;;;1.93;;
18399;SDS011;9326;49.468;11.008;2024-01-27T15:51:35;9.60;;;2.10;;
18399;SDS011;9326;49.468;11.008;2024-01-27T15:54:02;7.47;;;2.50;;
18399;SDS011;9326;49.468;11.008;2024-01-27T15:56:30;5.27;;;1.90;;
18399;SDS011;9326;49.468;11.008;2024-01-27T15:58:57;13.37;;;2.40;;
18399;SDS011;9326;49.468;11.008;2024-01-27T16:01:25;7.40;;;2.33;;
18399;SDS011;9326;49.468;11.008;2024-01-27T16:03:52;12.03;;;4.30;;
18399;SDS011;9326;49.468;11.008;2024-01-27T16:06:20;8.03;;;3.33;;
18399;SDS011;9326;49.468;11.008;2024-01-27T16:08:47;12.93;;;4.07;;
18399;SDS011;9326;49.468;11.008;2024-01-27T16:11:14;14.57;;;4.00;;
18399;SDS011;9326;49.468;11.008;2024-01-27T16:13:41;7.87;;;2.97;;
18399;SDS011;9326;49.468;11.008;2024-01-27T16:16:08;6.40;;;1.87;;
18399;SDS011;9326;49.468;11.008;2024-01-27T16:18:36;6.97;;;1.77;;
18399;SDS011;9326;49.468;11.008;2024-01-27T16:21:05;12.10;;;2.60;;
18399;SDS011;9326;49.468;11.008;2024-01-27T16:23:32;10.33;;;2.07;;
18399;SDS011;9326;49.468;11.008;2024-01-27T16:25:59;6.50;;;2.10;;
18399;SDS011;9326;49.468;11.008;2024-01-27T16:28:27;9.87;;;2.00;;
18399;SDS011;9326;49.468;11.008;2024-01-27T16:30:55;19.73;;;14.93;;
18399;SDS011;9326;49.468;11.008;2024-01-27T16:33:22;14.93;;;9.80;;
18399;SDS011;9326;49.468;11.008;2024-01-27T16:35:51;14.50;;;9.37;;
18399;SDS011;9326;49.468;11.008;2024-01-27T16:38:18;11.37;;;6.63;;
18399;SDS011;9326;49.468;11.008;2024-01-27T16:40:46;10.70;;;4.63;;
18399;SDS011;9326;49.468;11.008;2024-01-27T16:43:13;12.87;;;4.87;;
18399;SDS011;9326;49.468;11.008;2024-01-27T16:45:41;15.03;;;7.70;;
18399;SDS011;9326;49.468;11.008;2024-01-27T16:48:08;21.53;;;12.63;;
18399;SDS011;9326;49.468;11.008;2024-01-27T16:50:35;19.03;;;9.53;;
18399;SDS011;9326;49.468;11.008;2024-01-27T16:53:04;16.87;;;9.10;;
18399;SDS011;9326;49.468;11.008;2024-01-27T16:55:31;16.67;;;6.97;;
18399;SDS011;9326;49.468;11.008;2024-01-27T16:58:00;14.20;;;6.90;;
18399;SDS011;9326;49.468;11.008;2024-01-27T17:00:27;16.90;;;6.13;;
18399;SDS011;9326;49.468;11.008;2024-01-27T17:02:55;16.80;;;5.87;;
18399;SDS011;9326;49.468;11.008;2024-01-27T17:05:23;9.67;;;4.53;;
18399;SDS011;9326;49.468;11.008;2024-01-27T17:07:51;15.13;;;5.10;;
18399;SDS011;9326;49.468;11.008;2024-01-27T17:10:20;11.27;;;5.50;;
18399;SDS011;9326;49.468;11.008;2024-01-27T17:12:47;17.73;;;11.87;;
18399;SDS011;9326;49.468;11.008;2024-01-27T17:15:14;78.57;;;43.17;;
18399;SDS011;9326;49.468;11.008;2024-01-27T17:17:41;82.30;;;41.27;;
18399;SDS011;9326;49.468;11.008;2024-01-27T17:20:09;75.23;;;40.97;;
18399;SDS011;9326;49.468;11.008;2024-01-27T17:22:36;74.07;;;36.33;;
18399;SDS011;9326;49.468;11.008;2024-01-27T17:25:03;39.93;;;22.87;;
18399;SDS011;9326;49.468;11.008;2024-01-27T17:27:32;44.60;;;24.43;;
18399;SDS011;9326;49.468;11.008;2024-01-27T17:29:59;37.53;;;19.47;;
18399;SDS011;9326;49.468;11.008;2024-01-27T17:32:29;34.80;;;17.67;;
18399;SDS011;9326;49.468;11.008;2024-01-27T17:34:56;25.70;;;12.47;;
18399;SDS011;9326;49.468;11.008;2024-01-27T17:37:23;29.43;;;17.67;;
18399;SDS011;9326;49.468;11.008;2024-01-27T17:39:50;26.67;;;14.40;;
18399;SDS011;9326;49.468;11.008;2024-01-27T17:42:17;25.73;;;13.20;;
18399;SDS011;9326;49.468;11.008;2024-01-27T17:44:46;24.23;;;12.70;;
18399;SDS011;9326;49.468;11.008;2024-01-27T17:47:13;22.07;;;10.30;;
18399;SDS011;9326;49.468;11.008;2024-01-27T17:49:41;28.13;;;14.33;;
18399;SDS011;9326;49.468;11.008;2024-01-27T17:52:08;27.57;;;13.77;;
18399;SDS011;9326;49.468;11.008;2024-01-27T17:54:35;25.27;;;12.50;;
18399;SDS011;9326;49.468;11.008;2024-01-27T17:57:03;18.57;;;10.33;;
18399;SDS011;9326;49.468;11.008;2024-01-27T17:59:31;28.50;;;13.63;;
18399;SDS011;9326;49.468;11.008;2024-01-27T18:02:00;24.07;;;11.80;;
18399;SDS011;9326;49.468;11.008;2024-01-27T18:04:27;30.90;;;18.97;;
18399;SDS011;9326;49.468;11.008;2024-01-27T18:06:54;24.13;;;13.77;;
18399;SDS011;9326;49.468;11.008;2024-01-27T18:09:21;22.83;;;11.90;;
18399;SDS011;9326;49.468;11.008;2024-01-27T18:11:48;23.20;;;11.87;;
18399;SDS011;9326;49.468;11.008;2024-01-27T18:14:16;22.47;;;11.13;;
18399;SDS011;9326;49.468;11.008;2024-01-27T18:16:43;21.33;;;11.47;;
18399;SDS011;9326;49.468;11.008;2024-01-27T18:19:12;23.00;;;10.60;;
18399;SDS011;9326;49.468;11.008;2024-01-27T18:21:41;22.70;;;9.73;;
18399;SDS011;9326;49.468;11.008;2024-01-27T18:24:08;21.77;;;11.80;;
18399;SDS011;9326;49.468;11.008;2024-01-27T18:26:36;19.67;;;10.83;;
18399;SDS011;9326;49.468;11.008;2024-01-27T18:29:03;23.57;;;11.23;;
18399;SDS011;9326;49.468;11.008;2024-01-27T18:31:30;19.77;;;9.90;;
18399;SDS011;9326;49.468;11.008;2024-01-27T18:33:59;21.07;;;11.80;;
18399;SDS011;9326;49.468;11.008;2024-01-27T18:36:27;17.73;;;10.57;;
18399;SDS011;9326;49.468;11.008;2024-01-27T18:38:54;19.83;;;10.07;;
18399;SDS011;9326;49.468;11.008;2024-01-27T18:41:21;20.23;;;9.43;;
18399;SDS011;9326;49.468;11.008;2024-01-27T18:43:49;16.37;;;9.53;;
18399;SDS011;9326;49.468;11.008;2024-01-27T18:46:16;18.33;;;10.03;;
18399;SDS011;9326;49.468;11.008;2024-01-27T18:48:43;16.97;;;8.40;;
18399;SDS011;9326;49.468;11.008;2024-01-27T18:51:14;16.27;;;8.23;;
18399;SDS011;9326;49.468;11.008;2024-01-27T18:53:42;14.50;;;7.90;;
18399;SDS011;9326;49.468;11.008;2024-01-27T18:56:10;14.87;;;7.67;;
18399;SDS011;9326;49.468;11.008;2024-01-27T18:58:39;19.10;;;10.13;;
18399;SDS011;9326;49.468;11.008;2024-01-27T19:01:06;16.87;;;9.23;;
18399;SDS011;9326;49.468;11.008;2024-01-27T19:03:36;28.53;;;18.20;;
18399;SDS011;9326;49.468;11.008;2024-01-27T19:06:03;27.47;;;13.83;;
18399;SDS011;9326;49.468;11.008;2024-01-27T19:08:31;27.73;;;15.27;;
18399;SDS011;9326;49.468;11.008;2024-01-27T19:10:59;28.63;;;16.47;;
18399;SDS011;9326;49.468;11.008;2024-01-27T19:13:26;32.67;;;20.57;;
18399;SDS011;9326;49.468;11.008;2024-01-27T19:15:54;34.10;;;17.53;;
18399;SDS011;9326;49.468;11.008;2024-01-27T19:18:21;33.40;;;19.30;;
18399;SDS011;9326;49.468;11.008;2024-01-27T19:20:48;31.50;;;18.07;;
18399;SDS011;9326;49.468;11.008;2024-01-27T19:23:15;31.93;;;19.10;;
18399;SDS011;9326;49.468;11.008;2024-01-27T19:25:42;28.80;;;17.90;;
18399;SDS011;9326;49.468;11.008;2024-01-27T19:28:11;26.27;;;16.03;;
18399;SDS011;9326;49.468;11.008;2024-01-27T19:30:39;40.63;;;28.37;;
18399;SDS011;9326;49.468;11.008;2024-01-27T19:33:06;46.00;;;29.13;;
18399;SDS011;9326;49.468;11.008;2024-01-27T19:35:33;42.47;;;26.20;;
18399;SDS011;9326;49.468;11.008;2024-01-27T19:38:01;28.07;;;19.97;;
18399;SDS011;9326;49.468;11.008;2024-01-27T19:40:29;27.57;;;18.93;;